createdAt,value
2024-03-08T00:00:02.700Z,94941.00
2024-03-08T00:01:02.674Z,94941.00
2024-03-08T00:02:02.856Z,94940.00
2024-03-08T00:03:03.038Z,94937.00
2024-03-08T00:04:03.046Z,94940.00
2024-03-08T00:05:03.121Z,94942.00
2024-03-08T00:06:03.222Z,94942.00
2024-03-08T00:07:03.267Z,94942.00
2024-03-08T00:08:03.390Z,94942.00
2024-03-08T00:09:03.530Z,94941.00
2024-03-08T00:10:03.635Z,94943.00
2024-03-08T00:11:03.784Z,94942.00
2024-03-08T00:12:03.916Z,94942.00
2024-03-08T00:13:03.870Z,94940.00
2024-03-08T00:14:04.005Z,94944.00
2024-03-08T00:15:04.136Z,94942.00
2024-03-08T00:16:04.179Z,94941.00
2024-03-08T00:17:04.342Z,94941.00
2024-03-08T00:18:04.489Z,94942.00
2024-03-08T00:19:04.525Z,94939.00
2024-03-08T00:20:04.557Z,94940.00
2024-03-08T00:21:04.780Z,94937.00
2024-03-08T00:22:04.748Z,94936.00
2024-03-08T00:23:04.853Z,94934.00
2024-03-08T00:24:05.081Z,94933.00
2024-03-08T00:25:05.053Z,94931.00
2024-03-08T00:26:05.101Z,94932.00
2024-03-08T00:27:05.373Z,94931.00
2024-03-08T00:28:05.317Z,94928.00
2024-03-08T00:29:05.375Z,94928.00
2024-03-08T00:30:05.617Z,94927.00
2024-03-08T00:31:05.620Z,94924.00
2024-03-08T00:32:05.659Z,94922.00
2024-03-08T00:33:05.884Z,94922.00
2024-03-08T00:34:05.898Z,94923.00
2024-03-08T00:35:05.959Z,94920.00
2024-03-08T00:36:06.098Z,94918.00
2024-03-08T00:37:06.185Z,94917.00
2024-03-08T00:38:06.261Z,94917.00
2024-03-08T00:39:06.397Z,94917.00
2024-03-08T00:40:06.531Z,94914.00
2024-03-08T00:41:06.589Z,94914.00
2024-03-08T00:42:06.809Z,94913.00
2024-03-08T00:43:06.758Z,94910.00
2024-03-08T00:44:06.880Z,94910.00
2024-03-08T00:45:06.989Z,94910.00
2024-03-08T00:46:07.146Z,94908.00
2024-03-08T00:47:07.274Z,94909.00
2024-03-08T00:48:07.401Z,94906.00
2024-03-08T00:49:07.417Z,94906.00
2024-03-08T00:50:07.517Z,94905.00
2024-03-08T00:51:07.825Z,94906.00
2024-03-08T00:52:07.746Z,94907.00
2024-03-08T00:53:07.889Z,94908.00
2024-03-08T00:54:07.996Z,94907.00
2024-03-08T00:55:08.115Z,94906.00
2024-03-08T00:56:08.153Z,94909.00
2024-03-08T00:57:08.485Z,94907.00
2024-03-08T00:58:08.374Z,94906.00
2024-03-08T00:59:08.441Z,94906.00
2024-03-08T01:00:08.541Z,94905.00
2024-03-08T01:01:08.769Z,94905.00
2024-03-08T01:02:08.756Z,94904.00
2024-03-08T01:03:08.901Z,94900.00
2024-03-08T01:04:08.981Z,94897.00
2024-03-08T01:05:09.087Z,94898.00
2024-03-08T01:06:09.298Z,94898.00
2024-03-08T01:07:09.250Z,94896.00
2024-03-08T01:08:09.367Z,94895.00
2024-03-08T01:09:09.551Z,94895.00
2024-03-08T01:10:09.640Z,94893.00
2024-03-08T01:11:09.772Z,94894.00
2024-03-08T01:12:09.863Z,94896.00
2024-03-08T01:13:09.865Z,94887.00
2024-03-08T01:14:09.997Z,94890.00
2024-03-08T01:15:10.271Z,94891.00
2024-03-08T01:16:11.021Z,94894.00
2024-03-08T01:17:10.347Z,94891.00
2024-03-08T01:18:10.442Z,94890.00
2024-03-08T01:19:10.553Z,94890.00
2024-03-08T01:20:10.493Z,94889.00
2024-03-08T01:21:10.586Z,94889.00
2024-03-08T01:22:10.662Z,94889.00
2024-03-08T01:23:10.641Z,94888.00
2024-03-08T01:24:10.788Z,94887.00
2024-03-08T01:25:10.745Z,94885.00
2024-03-08T01:26:10.800Z,94886.00
2024-03-08T01:27:11.059Z,94884.00
2024-03-08T01:28:10.986Z,94880.00
2024-03-08T01:29:11.084Z,94881.00
2024-03-08T01:30:11.296Z,94879.00
2024-03-08T01:31:11.221Z,94880.00
2024-03-08T01:32:11.408Z,94877.00
2024-03-08T01:33:11.481Z,94876.00
2024-03-08T01:34:11.604Z,94877.00
2024-03-08T01:35:11.640Z,94874.00
2024-03-08T01:36:11.824Z,94873.00
2024-03-08T01:37:11.818Z,94873.00
2024-03-08T01:38:11.923Z,94873.00
2024-03-08T01:39:12.117Z,94872.00
2024-03-08T01:40:12.092Z,94871.00
2024-03-08T01:41:12.171Z,94869.00
2024-03-08T01:42:12.348Z,94869.00
2024-03-08T01:43:12.411Z,94870.00
2024-03-08T01:44:12.470Z,94867.00
2024-03-08T01:45:12.681Z,94869.00
2024-03-08T01:46:12.624Z,94869.00
2024-03-08T01:47:12.808Z,94867.00
2024-03-08T01:48:13.067Z,94867.00
2024-03-08T01:49:13.060Z,94866.00
2024-03-08T01:50:13.145Z,94863.00
2024-03-08T01:51:13.291Z,94864.00
2024-03-08T01:52:13.338Z,94861.00
2024-03-08T01:53:13.386Z,94861.00
2024-03-08T01:54:13.558Z,94860.00
2024-03-08T01:55:13.668Z,94857.00
2024-03-08T01:56:13.776Z,94858.00
2024-03-08T01:57:13.987Z,94855.00
2024-03-08T01:58:13.926Z,94853.00
2024-03-08T01:59:14.007Z,94852.00
2024-03-08T02:00:14.258Z,94851.00
2024-03-08T02:01:14.243Z,94852.00
2024-03-08T02:02:14.279Z,94849.00
2024-03-08T02:03:14.407Z,94849.00
2024-03-08T02:04:14.458Z,94847.00
2024-03-08T02:05:14.519Z,94847.00
2024-03-08T02:06:14.630Z,94845.00
2024-03-08T02:07:14.716Z,94845.00
2024-03-08T02:08:14.892Z,94845.00
2024-03-08T02:09:15.093Z,94845.00
2024-03-08T02:10:15.115Z,94844.00
2024-03-08T02:11:15.249Z,94843.00
2024-03-08T02:12:15.373Z,94844.00
2024-03-08T02:13:15.393Z,94845.00
2024-03-08T02:14:15.572Z,94843.00
2024-03-08T02:15:15.739Z,94845.00
2024-03-08T02:16:15.739Z,94843.00
2024-03-08T02:17:15.843Z,94842.00
2024-03-08T02:18:15.941Z,94841.00
2024-03-08T02:19:16.011Z,94842.00
2024-03-08T02:20:16.092Z,94841.00
2024-03-08T02:21:16.210Z,94839.00
2024-03-08T02:22:16.258Z,94837.00
2024-03-08T02:23:16.355Z,94840.00
2024-03-08T02:24:16.513Z,94840.00
2024-03-08T02:25:16.573Z,94839.00
2024-03-08T02:26:16.629Z,94840.00
2024-03-08T02:27:16.769Z,94839.00
2024-03-08T02:28:16.826Z,94841.00
2024-03-08T02:29:16.852Z,94838.00
2024-03-08T02:30:17.025Z,94837.00
2024-03-08T02:31:16.992Z,94836.00
2024-03-08T02:32:17.090Z,94835.00
2024-03-08T02:33:17.311Z,94835.00
2024-03-08T02:34:17.414Z,94836.00
2024-03-08T02:35:17.495Z,94836.00
2024-03-08T02:36:17.926Z,94835.00
2024-03-08T02:37:17.618Z,94835.00
2024-03-08T02:38:17.697Z,94833.00
2024-03-08T02:39:17.764Z,94835.00
2024-03-08T02:40:17.801Z,94835.00
2024-03-08T02:41:17.822Z,94834.00
2024-03-08T02:42:17.964Z,94834.00
2024-03-08T02:43:17.939Z,94831.00
2024-03-08T02:44:18.018Z,94835.00
2024-03-08T02:45:18.057Z,94834.00
2024-03-08T02:46:18.059Z,94830.00
2024-03-08T02:47:18.123Z,94832.00
2024-03-08T02:48:18.342Z,94835.00
2024-03-08T02:49:18.220Z,94833.00
2024-03-08T02:50:18.273Z,94832.00
2024-03-08T02:51:18.375Z,94834.00
2024-03-08T02:52:18.357Z,94833.00
2024-03-08T02:53:18.366Z,94831.00
2024-03-08T02:54:18.528Z,94830.00
2024-03-08T02:55:18.527Z,94832.00
2024-03-08T02:56:18.548Z,94829.00
2024-03-08T02:57:18.604Z,94830.00
2024-03-08T02:58:18.647Z,94828.00
2024-03-08T02:59:18.700Z,94829.00
2024-03-08T03:00:18.972Z,94832.00
2024-03-08T03:01:19.065Z,94830.00
2024-03-08T03:02:19.021Z,94830.00
2024-03-08T03:03:19.177Z,94826.00
2024-03-08T03:04:19.213Z,94826.00
2024-03-08T03:05:19.345Z,94825.00
2024-03-08T03:06:19.574Z,94825.00
2024-03-08T03:07:19.747Z,94826.00
2024-03-08T03:08:19.736Z,94823.00
2024-03-08T03:09:19.862Z,94822.00
2024-03-08T03:10:19.909Z,94821.00
2024-03-08T03:11:20.090Z,94821.00
2024-03-08T03:12:20.220Z,94820.00
2024-03-08T03:13:20.202Z,94820.00
2024-03-08T03:14:20.240Z,94821.00
2024-03-08T03:15:21.166Z,94818.00
2024-03-08T03:16:20.405Z,94820.00
2024-03-08T03:17:20.542Z,94819.00
2024-03-08T03:18:20.699Z,94816.00
2024-03-08T03:19:20.693Z,94817.00
2024-03-08T03:20:20.783Z,94819.00
2024-03-08T03:21:20.952Z,94819.00
2024-03-08T03:22:20.989Z,94817.00
2024-03-08T03:23:21.036Z,94817.00
2024-03-08T03:24:21.114Z,94818.00
2024-03-08T03:25:21.157Z,94815.00
2024-03-08T03:26:21.274Z,94815.00
2024-03-08T03:27:21.382Z,94814.00
2024-03-08T03:28:21.434Z,94810.00
2024-03-08T03:29:21.505Z,94810.00
2024-03-08T03:30:21.561Z,94810.00
2024-03-08T03:31:21.631Z,94810.00
2024-03-08T03:32:21.782Z,94807.00
2024-03-08T03:33:21.864Z,94809.00
2024-03-08T03:34:21.909Z,94808.00
2024-03-08T03:35:22.162Z,94810.00
2024-03-08T03:36:22.101Z,94806.00
2024-03-08T03:37:22.161Z,94808.00
2024-03-08T03:38:22.205Z,94809.00
2024-03-08T03:39:22.309Z,94811.00
2024-03-08T03:40:22.395Z,94811.00
2024-03-08T03:41:22.429Z,94810.00
2024-03-08T03:42:22.555Z,94811.00
2024-03-08T03:43:22.588Z,94811.00
2024-03-08T03:44:22.672Z,94810.00
2024-03-08T03:45:22.756Z,94810.00
2024-03-08T03:46:22.815Z,94809.00
2024-03-08T03:47:22.901Z,94809.00
2024-03-08T03:48:23.042Z,94809.00
2024-03-08T03:49:23.093Z,94809.00
2024-03-08T03:50:23.172Z,94807.00
2024-03-08T03:51:23.228Z,94807.00
2024-03-08T03:52:23.327Z,94808.00
2024-03-08T03:53:23.424Z,94808.00
2024-03-08T03:54:23.473Z,94804.00
2024-03-08T03:55:23.575Z,94805.00
2024-03-08T03:56:23.612Z,94806.00
2024-03-08T03:57:23.706Z,94806.00
2024-03-08T03:58:24.196Z,94804.00
2024-03-08T03:59:23.868Z,94804.00
2024-03-08T04:00:23.991Z,94803.00
2024-03-08T04:01:24.127Z,94804.00
2024-03-08T04:02:24.136Z,94804.00
2024-03-08T04:03:24.207Z,94804.00
2024-03-08T04:04:24.340Z,94804.00
2024-03-08T04:05:24.500Z,94804.00
2024-03-08T04:06:24.621Z,94803.00
2024-03-08T04:07:24.695Z,94804.00
2024-03-08T04:08:24.760Z,94801.00
2024-03-08T04:09:24.839Z,94803.00
2024-03-08T04:10:24.934Z,94802.00
2024-03-08T04:11:25.020Z,94800.00
2024-03-08T04:12:25.167Z,94799.00
2024-03-08T04:13:25.165Z,94798.00
2024-03-08T04:14:25.242Z,94800.00
2024-03-08T04:15:25.558Z,94797.00
2024-03-08T04:16:25.394Z,94798.00
2024-03-08T04:17:25.536Z,94795.00
2024-03-08T04:18:25.706Z,94794.00
2024-03-08T04:19:25.638Z,94796.00
2024-03-08T04:20:25.707Z,94793.00
2024-03-08T04:21:25.897Z,94794.00
2024-03-08T04:22:25.996Z,94791.00
2024-03-08T04:23:26.055Z,94793.00
2024-03-08T04:24:26.137Z,94793.00
2024-03-08T04:25:26.194Z,94792.00
2024-03-08T04:26:26.240Z,94792.00
2024-03-08T04:27:26.356Z,94793.00
2024-03-08T04:28:26.394Z,94790.00
2024-03-08T04:29:26.498Z,94791.00
2024-03-08T04:30:26.661Z,94789.00
2024-03-08T04:31:26.736Z,94789.00
2024-03-08T04:32:26.830Z,94789.00
2024-03-08T04:33:26.953Z,94788.00
2024-03-08T04:34:26.946Z,94788.00
2024-03-08T04:35:27.063Z,94787.00
2024-03-08T04:36:27.128Z,94787.00
2024-03-08T04:37:27.207Z,94790.00
2024-03-08T04:38:27.328Z,94789.00
2024-03-08T04:39:27.342Z,94788.00
2024-03-08T04:40:34.920Z,94789.00
2024-03-08T04:41:34.972Z,94789.00
2024-03-08T04:42:35.009Z,94788.00
2024-03-08T04:43:35.044Z,94786.00
2024-03-08T04:44:35.169Z,94787.00
2024-03-08T04:45:35.101Z,94789.00
2024-03-08T04:46:35.125Z,94787.00
2024-03-08T04:47:35.253Z,94786.00
2024-03-08T04:48:35.292Z,94785.00
2024-03-08T04:49:35.296Z,94783.00
2024-03-08T04:50:35.377Z,94785.00
2024-03-08T04:51:35.486Z,94784.00
2024-03-08T04:52:35.559Z,94783.00
2024-03-08T04:53:35.712Z,94783.00
2024-03-08T04:54:35.816Z,94783.00
2024-03-08T04:55:35.833Z,94783.00
2024-03-08T04:56:35.958Z,94782.00
2024-03-08T04:57:36.038Z,94782.00
2024-03-08T04:58:36.105Z,94782.00
2024-03-08T04:59:36.176Z,94780.00
2024-03-08T05:00:36.294Z,94781.00
2024-03-08T05:01:36.454Z,94781.00
2024-03-08T05:02:36.474Z,94780.00
2024-03-08T05:03:36.524Z,94780.00
2024-03-08T05:04:36.599Z,94781.00
2024-03-08T05:05:36.781Z,94780.00
2024-03-08T05:06:36.774Z,94782.00
2024-03-08T05:07:36.930Z,94782.00
2024-03-08T05:08:37.006Z,94785.00
2024-03-08T05:09:37.041Z,94784.00
2024-03-08T05:10:37.232Z,94784.00
2024-03-08T05:11:37.276Z,94784.00
2024-03-08T05:12:37.325Z,94784.00
2024-03-08T05:13:37.376Z,94784.00
2024-03-08T05:14:37.499Z,94782.00
2024-03-08T05:15:37.550Z,94786.00
2024-03-08T05:16:37.573Z,94784.00
2024-03-08T05:17:37.797Z,94784.00
2024-03-08T05:18:37.998Z,94784.00
2024-03-08T05:19:37.988Z,94784.00
2024-03-08T05:20:38.101Z,94783.00
2024-03-08T05:21:38.138Z,94784.00
2024-03-08T05:22:38.260Z,94784.00
2024-03-08T05:23:38.286Z,94783.00
2024-03-08T05:24:38.374Z,94784.00
2024-03-08T05:25:38.439Z,94784.00
2024-03-08T05:26:38.581Z,94783.00
2024-03-08T05:27:38.738Z,94783.00
2024-03-08T05:28:38.791Z,94784.00
2024-03-08T05:29:38.878Z,94785.00
2024-03-08T05:30:38.880Z,94782.00
2024-03-08T05:31:39.010Z,94782.00
2024-03-08T05:32:39.162Z,94781.00
2024-03-08T05:33:39.269Z,94781.00
2024-03-08T05:34:39.247Z,94781.00
2024-03-08T05:35:39.333Z,94779.00
2024-03-08T05:36:39.342Z,94779.00
2024-03-08T05:37:39.490Z,94781.00
2024-03-08T05:38:39.550Z,94779.00
2024-03-08T05:39:39.624Z,94780.00
2024-03-08T05:40:39.678Z,94780.00
2024-03-08T05:41:39.865Z,94779.00
2024-03-08T05:42:39.941Z,94778.00
2024-03-08T05:43:39.993Z,94780.00
2024-03-08T05:44:40.084Z,94777.00
2024-03-08T05:45:40.170Z,94776.00
2024-03-08T05:46:40.283Z,94777.00
2024-03-08T05:47:40.363Z,94776.00
2024-03-08T05:48:40.490Z,94777.00
2024-03-08T05:49:40.456Z,94777.00
2024-03-08T05:50:40.617Z,94781.00
2024-03-08T05:51:40.855Z,94783.00
2024-03-08T05:52:40.859Z,94781.00
2024-03-08T05:53:40.978Z,94781.00
2024-03-08T05:54:41.030Z,94782.00
2024-03-08T05:55:41.076Z,94784.00
2024-03-08T05:56:41.224Z,94784.00
2024-03-08T05:57:41.561Z,94788.00
2024-03-08T05:58:41.328Z,94785.00
2024-03-08T05:59:41.436Z,94788.00
2024-03-08T06:00:41.608Z,94788.00
2024-03-08T06:01:41.533Z,94791.00
2024-03-08T06:02:41.671Z,94790.00
2024-03-08T06:03:41.704Z,94793.00
2024-03-08T06:04:41.857Z,94792.00
2024-03-08T06:05:41.925Z,94793.00
2024-03-08T06:06:42.392Z,94792.00
2024-03-08T06:07:42.274Z,94792.00
2024-03-08T06:08:42.027Z,94794.00
2024-03-08T06:09:41.992Z,94793.00
2024-03-08T06:10:42.044Z,94792.00
2024-03-08T06:11:42.149Z,94792.00
2024-03-08T06:12:42.107Z,94792.00
2024-03-08T06:13:42.113Z,94791.00
2024-03-08T06:14:42.199Z,94793.00
2024-03-08T06:15:42.204Z,94793.00
2024-03-08T06:16:42.172Z,94796.00
2024-03-08T06:17:42.294Z,94793.00
2024-03-08T06:18:42.458Z,94790.00
2024-03-08T06:19:42.273Z,94789.00
2024-03-08T06:20:42.337Z,94790.00
2024-03-08T06:21:42.383Z,94793.00
2024-03-08T06:22:42.489Z,94794.00
2024-03-08T06:23:42.583Z,94795.00
2024-03-08T06:24:42.615Z,94796.00
2024-03-08T06:25:42.709Z,94797.00
2024-03-08T06:26:42.814Z,94797.00
2024-03-08T06:27:42.892Z,94798.00
2024-03-08T06:28:43.008Z,94799.00
2024-03-08T06:29:43.108Z,94800.00
2024-03-08T06:30:43.121Z,94804.00
2024-03-08T06:31:43.232Z,94803.00
2024-03-08T06:32:43.373Z,94806.00
2024-03-08T06:33:43.542Z,94802.00
2024-03-08T06:34:43.457Z,94802.00
2024-03-08T06:35:43.568Z,94807.00
2024-03-08T06:36:43.600Z,94807.00
2024-03-08T06:37:43.695Z,94808.00
2024-03-08T06:38:43.974Z,94807.00
2024-03-08T06:39:43.947Z,94812.00
2024-03-08T06:40:43.951Z,94815.00
2024-03-08T06:41:44.052Z,94814.00
2024-03-08T06:42:44.240Z,94810.00
2024-03-08T06:43:44.189Z,94809.00
2024-03-08T06:44:44.247Z,94810.00
2024-03-08T06:45:44.300Z,94808.00
2024-03-08T06:46:44.413Z,94807.00
2024-03-08T06:47:44.710Z,94807.00
2024-03-08T06:48:44.764Z,94810.00
2024-03-08T06:49:44.684Z,94810.00
2024-03-08T06:50:44.862Z,94811.00
2024-03-08T06:51:44.893Z,94812.00
2024-03-08T06:52:44.977Z,94807.00
2024-03-08T06:53:45.074Z,94807.00
2024-03-08T06:54:45.149Z,94808.00
2024-03-08T06:55:45.239Z,94809.00
2024-03-08T06:56:45.350Z,94809.00
2024-03-08T06:57:45.390Z,94806.00
2024-03-08T06:58:45.479Z,94807.00
2024-03-08T06:59:45.616Z,94805.00
2024-03-08T07:00:45.638Z,94807.00
2024-03-08T07:01:45.728Z,94809.00
2024-03-08T07:02:45.860Z,94808.00
2024-03-08T07:03:46.240Z,94807.00
2024-03-08T07:04:46.078Z,94806.00
2024-03-08T07:05:46.186Z,94805.00
2024-03-08T07:06:46.322Z,94803.00
2024-03-08T07:07:46.348Z,94807.00
2024-03-08T07:08:46.473Z,94808.00
2024-03-08T07:09:46.552Z,94812.00
2024-03-08T07:10:46.802Z,94809.00
2024-03-08T07:11:46.834Z,94807.00
2024-03-08T07:12:46.835Z,94806.00
2024-03-08T07:13:46.961Z,94801.00
2024-03-08T07:14:47.127Z,94798.00
2024-03-08T07:15:47.123Z,94799.00
2024-03-08T07:16:47.239Z,94801.00
2024-03-08T07:17:47.325Z,94800.00
2024-03-08T07:18:47.574Z,94801.00
2024-03-08T07:19:47.464Z,94803.00
2024-03-08T07:20:47.541Z,94799.00
2024-03-08T07:21:47.714Z,94797.00
2024-03-08T07:22:49.223Z,94796.00
2024-03-08T07:23:47.984Z,94795.00
2024-03-08T07:24:47.832Z,94798.00
2024-03-08T07:25:47.901Z,94799.00
2024-03-08T07:26:48.038Z,94798.00
2024-03-08T07:27:48.010Z,94796.00
2024-03-08T07:28:48.128Z,94791.00
2024-03-08T07:29:48.261Z,94793.00
2024-03-08T07:30:48.437Z,94789.00
2024-03-08T07:31:48.412Z,94794.00
2024-03-08T07:32:48.559Z,94789.00
2024-03-08T07:33:48.645Z,94787.00
2024-03-08T07:34:48.675Z,94785.00
2024-03-08T07:35:48.761Z,94784.00
2024-03-08T07:36:48.847Z,94784.00
2024-03-08T07:37:48.951Z,94787.00
2024-03-08T07:38:49.022Z,94778.00
2024-03-08T07:39:49.061Z,94785.00
2024-03-08T07:40:49.187Z,94785.00
2024-03-08T07:41:49.344Z,94784.00
2024-03-08T07:42:49.370Z,94776.00
2024-03-08T07:43:49.490Z,94776.00
2024-03-08T07:44:49.639Z,94776.00
2024-03-08T07:45:49.646Z,94777.00
2024-03-08T07:46:49.735Z,94776.00
2024-03-08T07:47:49.960Z,94775.00
2024-03-08T07:48:50.108Z,94774.00
2024-03-08T07:49:50.049Z,94773.00
2024-03-08T07:50:50.233Z,94772.00
2024-03-08T07:51:50.257Z,94772.00
2024-03-08T07:52:50.346Z,94760.00
2024-03-08T07:53:50.496Z,94759.00
2024-03-08T07:54:50.738Z,94759.00
2024-03-08T07:55:50.738Z,94760.00
2024-03-08T07:56:50.788Z,94762.00
2024-03-08T07:57:50.839Z,94761.00
2024-03-08T07:58:50.969Z,94761.00
2024-03-08T07:59:51.043Z,94758.00
2024-03-08T08:00:51.161Z,94754.00
2024-03-08T08:01:51.408Z,94755.00
2024-03-08T08:02:51.430Z,94751.00
2024-03-08T08:03:51.505Z,94747.00
2024-03-08T08:04:51.688Z,94742.00
2024-03-08T08:05:51.698Z,94742.00
2024-03-08T08:06:51.792Z,94741.00
2024-03-08T08:07:52.919Z,94740.00
2024-03-08T08:08:51.904Z,94742.00
2024-03-08T08:09:51.913Z,94741.00
2024-03-08T08:10:52.038Z,94738.00
2024-03-08T08:11:52.103Z,94738.00
2024-03-08T08:12:52.137Z,94734.00
2024-03-08T08:13:52.297Z,94736.00
2024-03-08T08:14:52.367Z,94734.00
2024-03-08T08:15:52.445Z,94730.00
2024-03-08T08:16:52.617Z,94728.00
2024-03-08T08:17:52.739Z,94727.00
2024-03-08T08:18:52.762Z,94723.00
2024-03-08T08:19:52.941Z,94719.00
2024-03-08T08:20:52.973Z,94717.00
2024-03-08T08:21:53.037Z,94714.00
2024-03-08T08:22:53.206Z,94715.00
2024-03-08T08:23:53.245Z,94716.00
2024-03-08T08:24:53.307Z,94713.00
2024-03-08T08:25:53.530Z,94709.00
2024-03-08T08:26:53.546Z,94706.00
2024-03-08T08:27:53.601Z,94706.00
2024-03-08T08:28:53.805Z,94710.00
2024-03-08T08:29:53.779Z,94708.00
2024-03-08T08:30:53.835Z,94704.00
2024-03-08T08:31:53.928Z,94704.00
2024-03-08T08:32:54.047Z,94701.00
2024-03-08T08:33:54.132Z,94701.00
2024-03-08T08:34:54.225Z,94699.00
2024-03-08T08:35:54.298Z,94696.00
2024-03-08T08:36:54.409Z,94694.00
2024-03-08T08:37:54.557Z,94691.00
2024-03-08T08:38:54.623Z,94692.00
2024-03-08T08:39:54.836Z,94688.00
2024-03-08T08:40:55.023Z,94692.00
2024-03-08T08:41:56.286Z,94690.00
2024-03-08T08:42:55.006Z,94691.00
2024-03-08T08:44:03.479Z,94689.00
2024-03-08T08:44:56.654Z,94682.00
2024-03-08T08:45:55.136Z,94682.00
2024-03-08T08:46:57.792Z,94680.00
2024-03-08T08:47:56.276Z,94679.00
2024-03-08T08:48:55.070Z,94677.00
2024-03-08T08:49:55.081Z,94679.00
2024-03-08T08:50:55.103Z,94677.00
2024-03-08T08:51:56.831Z,94676.00
2024-03-08T08:52:55.134Z,94680.00
2024-03-08T08:53:55.095Z,94678.00
2024-03-08T08:54:55.150Z,94675.00
2024-03-08T08:55:55.241Z,94673.00
2024-03-08T08:56:55.048Z,94673.00
2024-03-08T08:57:55.217Z,94673.00
2024-03-08T08:58:55.156Z,94672.00
2024-03-08T08:59:55.081Z,94669.00
2024-03-08T09:00:55.090Z,94666.00
2024-03-08T09:01:55.189Z,94665.00
2024-03-08T09:02:55.085Z,94664.00
2024-03-08T09:03:55.153Z,94660.00
2024-03-08T09:04:55.312Z,94661.00
2024-03-08T09:05:55.069Z,94660.00
2024-03-08T09:06:55.095Z,94656.00
2024-03-08T09:07:55.142Z,94653.00
2024-03-08T09:08:55.121Z,94651.00
2024-03-08T09:09:55.079Z,94649.00
2024-03-08T09:10:55.196Z,94648.00
2024-03-08T09:11:55.154Z,94649.00
2024-03-08T09:12:55.164Z,94645.00
2024-03-08T09:13:55.134Z,94645.00
2024-03-08T09:14:55.092Z,94644.00
2024-03-08T09:15:55.117Z,94643.00
2024-03-08T09:16:55.142Z,94642.00
2024-03-08T09:17:55.108Z,94639.00
2024-03-08T09:18:55.144Z,94634.00
2024-03-08T09:19:55.173Z,94629.00
2024-03-08T09:20:55.773Z,94627.00
2024-03-08T09:21:55.072Z,94626.00
2024-03-08T09:22:55.162Z,94623.00
2024-03-08T09:23:55.144Z,94626.00
2024-03-08T09:24:55.100Z,94625.00
2024-03-08T09:25:55.135Z,94626.00
2024-03-08T09:26:55.127Z,94622.00
2024-03-08T09:27:55.103Z,94617.00
2024-03-08T09:28:55.140Z,94617.00
2024-03-08T09:29:55.155Z,94619.00
2024-03-08T09:30:59.783Z,94617.00
2024-03-08T09:31:56.187Z,94613.00
2024-03-08T09:32:57.343Z,94608.00
2024-03-08T09:33:55.119Z,94606.00
2024-03-08T09:34:55.161Z,94605.00
2024-03-08T09:35:55.094Z,94605.00
2024-03-08T09:36:55.156Z,94605.00
2024-03-08T09:37:55.184Z,94602.00
2024-03-08T09:38:55.141Z,94606.00
2024-03-08T09:39:55.183Z,94600.00
2024-03-08T09:40:55.195Z,94600.00
2024-03-08T09:41:55.105Z,94599.00
2024-03-08T09:42:55.104Z,94600.00
2024-03-08T09:43:55.217Z,94599.00
2024-03-08T09:44:55.111Z,94600.00
2024-03-08T09:45:55.122Z,94599.00
2024-03-08T09:46:55.172Z,94595.00
2024-03-08T09:47:55.125Z,94590.00
2024-03-08T09:48:55.138Z,94584.00
2024-03-08T09:49:55.256Z,94586.00
2024-03-08T09:50:55.233Z,94589.00
2024-03-08T09:51:55.173Z,94588.00
2024-03-08T09:52:55.206Z,94586.00
2024-03-08T09:53:55.147Z,94589.00
2024-03-08T09:54:55.129Z,94582.00
2024-03-08T09:55:55.275Z,94587.00
2024-03-08T09:56:55.185Z,94581.00
2024-03-08T09:57:55.219Z,94576.00
2024-03-08T09:58:55.394Z,94572.00
2024-03-08T09:59:55.208Z,94569.00
2024-03-08T10:00:55.189Z,94568.00
2024-03-08T10:01:55.297Z,94567.00
2024-03-08T10:02:55.355Z,94566.00
2024-03-08T10:03:55.197Z,94568.00
2024-03-08T10:04:55.241Z,94568.00
2024-03-08T10:05:55.261Z,94568.00
2024-03-08T10:06:55.202Z,94565.00
2024-03-08T10:07:55.214Z,94564.00
2024-03-08T10:08:55.226Z,94560.00
2024-03-08T10:09:55.291Z,94558.00
2024-03-08T10:10:55.542Z,94554.00
2024-03-08T10:11:55.461Z,94551.00
2024-03-08T10:12:55.542Z,94553.00
2024-03-08T10:13:55.716Z,94552.00
2024-03-08T10:14:55.765Z,94551.00
2024-03-08T10:15:55.847Z,94551.00
2024-03-08T10:16:56.168Z,94552.00
2024-03-08T10:17:56.103Z,94554.00
2024-03-08T10:18:56.253Z,94558.00
2024-03-08T10:19:56.345Z,94551.00
2024-03-08T10:20:56.473Z,94549.00
2024-03-08T10:21:56.708Z,94540.00
2024-03-08T10:23:06.560Z,94541.00
2024-03-08T10:23:57.874Z,94539.00
2024-03-08T10:24:56.870Z,94536.00
2024-03-08T10:25:56.920Z,94534.00
2024-03-08T10:26:56.841Z,94534.00
2024-03-08T10:27:56.843Z,94536.00
2024-03-08T10:28:57.032Z,94532.00
2024-03-08T10:29:56.863Z,94529.00
2024-03-08T10:30:56.875Z,94528.00
2024-03-08T10:31:56.898Z,94526.00
2024-03-08T10:32:56.900Z,94522.00
2024-03-08T10:33:56.864Z,94520.00
2024-03-08T10:34:57.014Z,94516.00
2024-03-08T10:35:57.076Z,94520.00
2024-03-08T10:36:57.157Z,94526.00
2024-03-08T10:37:57.362Z,94524.00
2024-03-08T10:38:57.373Z,94524.00
2024-03-08T10:39:57.497Z,94520.00
2024-03-08T10:40:57.661Z,94518.00
2024-03-08T10:41:57.725Z,94512.00
2024-03-08T10:42:57.779Z,94509.00
2024-03-08T10:43:57.966Z,94507.00
2024-03-08T10:44:57.936Z,94502.00
2024-03-08T10:45:58.092Z,94502.00
2024-03-08T10:46:58.299Z,94495.00
2024-03-08T10:47:58.396Z,94495.00
2024-03-08T10:48:58.553Z,94495.00
2024-03-08T10:49:58.730Z,94496.00
2024-03-08T10:50:58.844Z,94490.00
2024-03-08T10:51:59.013Z,94486.00
2024-03-08T10:52:59.207Z,94483.00
2024-03-08T10:53:59.279Z,94481.00
2024-03-08T10:54:59.362Z,94480.00
2024-03-08T10:55:59.470Z,94475.00
2024-03-08T10:56:59.580Z,94476.00
2024-03-08T10:57:59.674Z,94472.00
2024-03-08T10:58:59.783Z,94468.00
2024-03-08T11:00:00.143Z,94470.00
2024-03-08T11:01:00.098Z,94470.00
2024-03-08T11:02:00.303Z,94468.00
2024-03-08T11:03:00.359Z,94461.00
2024-03-08T11:04:00.397Z,94458.00
2024-03-08T11:05:00.523Z,94453.00
2024-03-08T11:06:00.493Z,94450.00
2024-03-08T11:07:00.848Z,94448.00
2024-03-08T11:08:00.757Z,94449.00
2024-03-08T11:09:00.862Z,94453.00
2024-03-08T11:10:00.814Z,94451.00
2024-03-08T11:11:00.957Z,94452.00
2024-03-08T11:12:00.967Z,94452.00
2024-03-08T11:13:00.968Z,94456.00
2024-03-08T11:14:01.235Z,94454.00
2024-03-08T11:15:01.130Z,94450.00
2024-03-08T11:16:01.243Z,94447.00
2024-03-08T11:17:01.311Z,94444.00
2024-03-08T11:18:01.414Z,94443.00
2024-03-08T11:19:01.421Z,94440.00
2024-03-08T11:20:01.598Z,94436.00
2024-03-08T11:21:01.573Z,94434.00
2024-03-08T11:22:01.679Z,94436.00
2024-03-08T11:23:01.834Z,94433.00
2024-03-08T11:24:01.849Z,94432.00
2024-03-08T11:25:01.909Z,94431.00
2024-03-08T11:26:01.940Z,94428.00
2024-03-08T11:27:01.981Z,94427.00
2024-03-08T11:28:02.051Z,94422.00
2024-03-08T11:29:02.161Z,94418.00
2024-03-08T11:30:02.248Z,94412.00
2024-03-08T11:31:02.319Z,94407.00
2024-03-08T11:32:02.390Z,94408.00
2024-03-08T11:33:02.482Z,94410.00
2024-03-08T11:34:02.576Z,94406.00
2024-03-08T11:35:02.634Z,94409.00
2024-03-08T11:36:03.948Z,94409.00
2024-03-08T11:37:02.735Z,94411.00
2024-03-08T11:38:02.800Z,94410.00
2024-03-08T11:39:02.735Z,94410.00
2024-03-08T11:40:02.817Z,94408.00
2024-03-08T11:41:03.050Z,94403.00
2024-03-08T11:42:03.005Z,94401.00
2024-03-08T11:43:55.061Z,94393.00
2024-03-08T11:44:55.017Z,94399.00
2024-03-08T11:45:55.054Z,94401.00